createdAt,value
2022-11-14T19:12:13.752Z,9.48
2022-11-14T19:14:41.240Z,5.10
2022-11-14T19:17:08.473Z,6.68
2022-11-14T19:19:35.889Z,7.45
2022-11-14T19:22:03.327Z,4.80
2022-11-14T19:24:30.618Z,7.85
2022-11-14T19:26:58.037Z,4.93
2022-11-14T19:29:26.991Z,4.28
2022-11-14T19:31:54.186Z,5.68
2022-11-14T19:34:21.668Z,8.25
2022-11-14T19:37:04.256Z,7.13
2022-11-14T19:39:31.793Z,9.75
2022-11-14T19:41:59.104Z,5.43
2022-11-14T19:44:27.945Z,6.95
2022-11-14T19:46:55.287Z,6.70
2022-11-14T19:49:22.536Z,7.28
2022-11-14T19:51:50.056Z,6.60
2022-11-14T19:54:17.403Z,7.00
2022-11-14T19:56:44.693Z,7.10
2022-11-14T19:59:14.891Z,6.70
2022-11-14T20:01:45.220Z,12.93
2022-11-14T20:04:12.795Z,9.00
2022-11-14T20:06:40.116Z,6.15
2022-11-14T20:09:08.394Z,12.32
2022-11-14T20:11:35.832Z,10.00
2022-11-14T20:14:03.188Z,14.85
2022-11-14T20:16:31.421Z,8.80
2022-11-14T20:19:00.750Z,8.48
2022-11-14T20:21:29.838Z,9.25
2022-11-14T20:23:57.129Z,11.85
2022-11-14T20:26:24.492Z,15.00
2022-11-14T20:28:52.401Z,8.82
2022-11-14T20:31:20.554Z,20.92
2022-11-14T20:33:48.296Z,13.77
2022-11-14T20:36:17.802Z,14.93
2022-11-14T20:38:48.032Z,19.55
2022-11-14T20:41:15.297Z,16.17
2022-11-14T20:43:42.674Z,14.18
2022-11-14T20:46:11.818Z,23.50
2022-11-14T20:48:39.117Z,14.50
2022-11-14T20:51:07.117Z,16.80
2022-11-14T20:53:35.958Z,15.63
2022-11-14T20:56:03.326Z,16.88
2022-11-14T20:58:30.657Z,17.05
2022-11-14T21:00:58.192Z,19.60
2022-11-14T21:03:25.531Z,14.50
2022-11-14T21:05:52.852Z,15.90
2022-11-14T21:08:20.320Z,14.80
2022-11-14T21:10:50.209Z,15.10
2022-11-14T21:13:19.032Z,18.17
2022-11-14T21:15:46.536Z,14.80
2022-11-14T21:18:14.039Z,16.08
2022-11-14T21:20:41.661Z,14.70
2022-11-14T21:23:09.124Z,14.30
2022-11-14T21:25:36.648Z,12.30
2022-11-14T21:28:05.673Z,13.00
2022-11-14T21:30:33.789Z,12.82
2022-11-14T21:33:01.291Z,17.75
2022-11-14T21:35:31.199Z,13.50
2022-11-14T21:37:58.652Z,7.65
2022-11-14T21:40:26.194Z,11.15
2022-11-14T21:42:53.732Z,10.82
2022-11-14T21:45:22.749Z,11.35
2022-11-14T21:47:50.237Z,10.23
2022-11-14T21:50:17.863Z,8.20
2022-11-14T21:52:45.444Z,11.55
2022-11-14T21:55:13.020Z,10.15
2022-11-14T21:57:40.538Z,7.07
2022-11-14T22:00:09.442Z,7.78
2022-11-14T22:02:38.401Z,8.32
2022-11-14T22:05:06.399Z,10.57
2022-11-14T22:07:33.987Z,8.18
2022-11-14T22:10:01.615Z,11.00
2022-11-14T22:12:29.220Z,7.68
2022-11-14T22:14:56.783Z,6.00
2022-11-14T22:17:24.347Z,4.97
2022-11-14T22:19:53.313Z,6.57
2022-11-14T22:22:20.775Z,7.35
2022-11-14T22:24:48.303Z,8.13
2022-11-14T22:27:15.880Z,5.20
2022-11-14T22:29:43.393Z,5.30
2022-11-14T22:32:10.982Z,6.63
2022-11-14T22:34:38.441Z,5.70
2022-11-14T22:37:07.474Z,7.18
2022-11-14T22:39:35.081Z,4.28
2022-11-14T22:42:02.631Z,5.47
2022-11-14T22:44:30.249Z,4.93
2022-11-14T22:46:57.793Z,3.92
2022-11-14T22:49:25.333Z,3.90
2022-11-14T22:51:52.901Z,3.67
2022-11-14T22:54:21.964Z,4.70
2022-11-14T22:56:49.442Z,4.22
2022-11-14T22:59:17.016Z,4.85
2022-11-14T23:01:44.531Z,2.65
2022-11-14T23:04:12.142Z,5.72
2022-11-14T23:06:39.708Z,3.67
2022-11-14T23:09:07.233Z,4.13
2022-11-14T23:11:36.211Z,2.40
2022-11-14T23:14:03.801Z,2.72
2022-11-14T23:16:32.164Z,2.25
2022-11-14T23:19:01.101Z,3.38
2022-11-14T23:21:29.606Z,4.55
2022-11-14T23:23:58.060Z,3.33
2022-11-14T23:26:26.012Z,3.78
2022-11-14T23:28:55.041Z,3.05
2022-11-14T23:31:22.612Z,2.17
2022-11-14T23:33:51.993Z,2.28
2022-11-14T23:36:19.595Z,3.40
2022-11-14T23:38:47.138Z,3.00
2022-11-14T23:41:16.784Z,2.55
2022-11-14T23:43:44.445Z,2.10
2022-11-14T23:46:13.495Z,2.28
2022-11-14T23:48:41.032Z,2.70
2022-11-14T23:51:08.652Z,2.63
2022-11-14T23:53:36.145Z,1.30
2022-11-14T23:56:03.776Z,1.52
2022-11-14T23:58:31.446Z,2.92
